createdAt,value
2019-03-29T00:00:17.801Z,56.40
2019-03-29T00:00:49.200Z,56.30
2019-03-29T00:01:20.481Z,56.30
2019-03-29T00:01:51.658Z,56.30
2019-03-29T00:02:22.940Z,56.20
2019-03-29T00:02:54.181Z,56.20
2019-03-29T00:03:25.499Z,56.20
2019-03-29T00:03:57.074Z,56.20
2019-03-29T00:04:28.811Z,56.20
2019-03-29T00:05:00.018Z,56.10
2019-03-29T00:05:31.472Z,56.70
2019-03-29T00:06:03.020Z,56.10
2019-03-29T00:06:34.313Z,56.20
2019-03-29T00:07:05.986Z,56.10
2019-03-29T00:07:40.040Z,56.10
2019-03-29T00:08:10.690Z,56.20
2019-03-29T00:08:42.918Z,56.70
2019-03-29T00:09:14.395Z,56.10
2019-03-29T00:09:46.012Z,56.10
2019-03-29T00:10:17.697Z,56.50
2019-03-29T00:10:49.051Z,56.10
2019-03-29T00:11:20.360Z,56.20
2019-03-29T00:11:51.984Z,56.10
2019-03-29T00:12:23.320Z,56.20
2019-03-29T00:12:54.645Z,56.20
2019-03-29T00:13:25.974Z,56.20
2019-03-29T00:13:57.570Z,56.10
2019-03-29T00:14:28.808Z,56.10
2019-03-29T00:15:00.423Z,56.10
2019-03-29T00:15:31.616Z,56.10
2019-03-29T00:16:02.930Z,56.10
2019-03-29T00:16:34.212Z,56.10
2019-03-29T00:17:05.547Z,56.10
2019-03-29T00:17:36.785Z,56.10
2019-03-29T00:18:08.003Z,56.20
2019-03-29T00:18:39.482Z,56.10
2019-03-29T00:19:10.765Z,56.20
2019-03-29T00:19:41.966Z,56.10
2019-03-29T00:20:14.944Z,56.10
2019-03-29T00:20:47.220Z,56.10
2019-03-29T00:21:18.898Z,56.10
2019-03-29T00:21:50.202Z,56.00
2019-03-29T00:22:21.861Z,56.10
2019-03-29T00:22:53.165Z,56.30
2019-03-29T00:23:24.422Z,56.20
2019-03-29T00:24:06.151Z,56.20
2019-03-29T00:24:28.722Z,56.20
2019-03-29T00:24:59.920Z,56.10
2019-03-29T00:25:31.243Z,56.20
2019-03-29T00:26:02.505Z,56.20
2019-03-29T00:26:33.806Z,56.10
2019-03-29T00:27:05.111Z,56.10
2019-03-29T00:27:36.447Z,56.10
2019-03-29T00:28:08.031Z,56.00
2019-03-29T00:28:39.607Z,56.00
2019-03-29T00:29:10.946Z,56.00
2019-03-29T00:29:42.258Z,56.00
2019-03-29T00:30:13.565Z,56.10
2019-03-29T00:30:44.899Z,56.00
2019-03-29T00:31:16.090Z,56.00
2019-03-29T00:31:47.742Z,56.00
2019-03-29T00:32:18.993Z,56.00
2019-03-29T00:32:50.203Z,56.00
2019-03-29T00:33:21.550Z,56.00
2019-03-29T00:33:52.876Z,56.10
2019-03-29T00:34:24.164Z,56.00
2019-03-29T00:34:56.600Z,56.00
2019-03-29T00:35:27.901Z,56.10
2019-03-29T00:35:59.239Z,56.00
2019-03-29T00:36:31.159Z,56.00
2019-03-29T00:37:02.354Z,56.00
2019-03-29T00:37:33.640Z,56.00
2019-03-29T00:38:04.822Z,56.00
2019-03-29T00:38:36.000Z,56.00
2019-03-29T00:39:07.205Z,56.70
2019-03-29T00:39:38.376Z,56.00
2019-03-29T00:40:09.562Z,56.10
2019-03-29T00:40:41.133Z,56.00
2019-03-29T00:41:12.315Z,56.10
2019-03-29T00:41:43.501Z,56.00
2019-03-29T00:42:14.754Z,56.70
2019-03-29T00:42:46.037Z,56.00
2019-03-29T00:43:17.213Z,56.00
2019-03-29T00:43:48.430Z,56.00
2019-03-29T00:44:19.637Z,56.00
2019-03-29T00:44:50.821Z,56.60
2019-03-29T00:45:21.999Z,56.00
2019-03-29T00:45:53.170Z,56.00
2019-03-29T00:46:24.350Z,56.00
2019-03-29T00:46:55.543Z,56.00
2019-03-29T00:47:26.742Z,56.10
2019-03-29T00:47:57.944Z,56.00
2019-03-29T00:48:29.116Z,56.10
2019-03-29T00:49:00.651Z,56.10
2019-03-29T00:49:31.975Z,56.10
2019-03-29T00:50:03.174Z,56.10
2019-03-29T00:50:34.352Z,56.10
2019-03-29T00:51:05.574Z,56.10
2019-03-29T00:51:36.753Z,56.10
2019-03-29T00:52:07.927Z,56.00
2019-03-29T00:52:39.199Z,56.00
2019-03-29T00:53:10.395Z,56.00
2019-03-29T00:53:41.567Z,56.00
2019-03-29T00:54:12.745Z,56.00
2019-03-29T00:54:43.915Z,56.00
2019-03-29T00:55:15.119Z,56.00
2019-03-29T00:55:46.927Z,56.00
2019-03-29T00:56:18.356Z,56.00
2019-03-29T00:56:49.535Z,56.00
2019-03-29T00:57:20.802Z,56.70
2019-03-29T00:57:52.293Z,56.00
2019-03-29T00:58:23.469Z,56.00
2019-03-29T00:58:54.644Z,56.00
2019-03-29T00:59:25.905Z,56.00
2019-03-29T00:59:57.082Z,56.00
2019-03-29T01:00:31.264Z,55.90
2019-03-29T01:01:01.529Z,55.90
2019-03-29T01:01:33.070Z,55.90
2019-03-29T01:02:04.250Z,55.90
2019-03-29T01:02:35.582Z,55.90
2019-03-29T01:03:06.828Z,55.90
2019-03-29T01:03:38.065Z,56.50
2019-03-29T01:04:09.237Z,55.80
2019-03-29T01:04:40.414Z,55.80
2019-03-29T01:05:11.598Z,55.80
2019-03-29T01:05:42.927Z,55.80
2019-03-29T01:06:14.102Z,55.80
2019-03-29T01:06:45.353Z,55.80
2019-03-29T01:07:16.826Z,55.80
2019-03-29T01:07:47.999Z,55.80
2019-03-29T01:08:19.192Z,55.80
2019-03-29T01:08:50.432Z,55.80
2019-03-29T01:09:22.060Z,55.80
2019-03-29T01:09:53.238Z,55.80
2019-03-29T01:10:24.403Z,55.80
2019-03-29T01:10:55.611Z,55.90
2019-03-29T01:11:27.119Z,55.90
2019-03-29T01:11:58.760Z,55.90
2019-03-29T01:12:29.939Z,55.90
2019-03-29T01:13:01.407Z,56.00
2019-03-29T01:13:32.575Z,55.90
2019-03-29T01:14:03.759Z,55.90
2019-03-29T01:14:34.928Z,55.90
2019-03-29T01:15:06.196Z,55.90
2019-03-29T01:15:37.668Z,55.90
2019-03-29T01:16:10.090Z,55.90
2019-03-29T01:16:41.237Z,55.90
2019-03-29T01:17:12.440Z,55.90
2019-03-29T01:17:43.684Z,55.90
2019-03-29T01:18:14.856Z,55.90
2019-03-29T01:18:46.111Z,55.90
2019-03-29T01:19:17.345Z,55.90
2019-03-29T01:19:48.517Z,55.90
2019-03-29T01:20:19.952Z,55.80
2019-03-29T01:20:51.170Z,55.80
2019-03-29T01:21:22.386Z,55.80
2019-03-29T01:21:53.549Z,55.70
2019-03-29T01:22:25.026Z,55.70
2019-03-29T01:22:56.202Z,55.70
2019-03-29T01:23:27.378Z,55.70
2019-03-29T01:23:58.569Z,55.60
2019-03-29T01:24:29.742Z,55.60
2019-03-29T01:25:00.927Z,55.70
2019-03-29T01:25:32.159Z,55.60
2019-03-29T01:26:03.407Z,55.60
2019-03-29T01:26:34.578Z,55.60
2019-03-29T01:27:06.110Z,55.60
2019-03-29T01:27:37.658Z,55.60
2019-03-29T01:28:08.847Z,55.60
2019-03-29T01:28:40.026Z,55.60
2019-03-29T01:29:11.224Z,55.60
2019-03-29T01:29:42.391Z,55.60
2019-03-29T01:30:13.631Z,56.30
2019-03-29T01:30:44.878Z,55.60
2019-03-29T01:31:16.059Z,55.70
2019-03-29T01:31:47.508Z,55.60
2019-03-29T01:32:18.707Z,55.70
2019-03-29T01:32:49.883Z,55.60
2019-03-29T01:33:21.157Z,55.60
2019-03-29T01:33:52.347Z,55.60
2019-03-29T01:34:23.877Z,55.60
2019-03-29T01:34:55.075Z,55.60
2019-03-29T01:35:26.255Z,55.60
2019-03-29T01:35:57.433Z,55.60
2019-03-29T01:36:28.620Z,55.60
2019-03-29T01:36:59.960Z,55.60
2019-03-29T01:37:31.140Z,55.70
2019-03-29T01:38:02.316Z,55.60
2019-03-29T01:38:33.488Z,55.60
2019-03-29T01:39:04.977Z,55.60
2019-03-29T01:39:36.164Z,55.60
2019-03-29T01:40:07.428Z,55.60
2019-03-29T01:40:39.554Z,55.60
2019-03-29T01:41:10.738Z,55.60
2019-03-29T01:41:41.909Z,55.60
2019-03-29T01:42:13.093Z,55.60
2019-03-29T01:42:44.943Z,55.60
2019-03-29T01:43:16.291Z,55.70
2019-03-29T01:43:47.545Z,55.70
2019-03-29T01:44:18.726Z,55.60
2019-03-29T01:44:49.903Z,55.70
2019-03-29T01:45:21.085Z,55.70
2019-03-29T01:45:52.310Z,55.70
2019-03-29T01:46:23.494Z,55.70
2019-03-29T01:46:54.718Z,55.70
2019-03-29T01:47:25.903Z,55.70
2019-03-29T01:47:57.082Z,55.70
2019-03-29T01:48:28.250Z,55.80
2019-03-29T01:48:59.438Z,55.70
2019-03-29T01:49:30.627Z,55.80
2019-03-29T01:50:02.010Z,55.70
2019-03-29T01:50:33.226Z,55.80
2019-03-29T01:51:04.423Z,55.70
2019-03-29T01:51:35.603Z,55.70
2019-03-29T01:52:07.104Z,55.80
2019-03-29T01:52:38.279Z,55.70
2019-03-29T01:53:09.824Z,55.70
2019-03-29T01:53:41.322Z,55.70
2019-03-29T01:54:12.527Z,55.70
2019-03-29T01:54:44.096Z,55.60
2019-03-29T01:55:15.623Z,55.60
2019-03-29T01:55:47.165Z,55.60
2019-03-29T01:56:18.724Z,55.50
2019-03-29T01:56:50.273Z,55.50
2019-03-29T01:57:21.788Z,55.50
2019-03-29T01:57:52.968Z,55.50
2019-03-29T01:58:25.016Z,55.40
2019-03-29T01:58:56.432Z,55.40
2019-03-29T01:59:27.614Z,55.40
2019-03-29T01:59:58.892Z,55.50
2019-03-29T02:00:30.069Z,55.40
2019-03-29T02:01:02.297Z,55.40
2019-03-29T02:01:34.313Z,56.10
2019-03-29T02:02:05.547Z,55.40
2019-03-29T02:02:36.725Z,55.40
2019-03-29T02:03:07.909Z,55.40
2019-03-29T02:03:39.285Z,55.40
2019-03-29T02:04:11.141Z,55.40
2019-03-29T02:04:42.318Z,55.40
2019-03-29T02:05:13.570Z,55.50
2019-03-29T02:05:44.842Z,55.50
2019-03-29T02:06:16.029Z,55.50
2019-03-29T02:06:47.256Z,55.50
2019-03-29T02:07:18.891Z,55.50
2019-03-29T02:07:50.099Z,55.50
2019-03-29T02:08:34.815Z,55.50
2019-03-29T02:08:54.535Z,55.50
2019-03-29T02:09:25.797Z,55.50
2019-03-29T02:09:57.133Z,55.50
2019-03-29T02:10:28.410Z,55.50
2019-03-29T02:10:59.628Z,55.50
2019-03-29T02:11:30.863Z,55.50
2019-03-29T02:12:02.036Z,55.50
2019-03-29T02:12:33.339Z,55.50
2019-03-29T02:13:05.512Z,55.40
2019-03-29T02:13:37.057Z,55.40
2019-03-29T02:14:08.661Z,55.40
2019-03-29T02:14:40.132Z,55.40
2019-03-29T02:15:11.993Z,55.50
2019-03-29T02:15:43.288Z,55.40
2019-03-29T02:16:14.470Z,55.40
2019-03-29T02:16:45.648Z,55.50
2019-03-29T02:17:16.816Z,56.10
2019-03-29T02:17:48.186Z,55.40
2019-03-29T02:18:19.468Z,55.40
2019-03-29T02:18:50.712Z,55.40
2019-03-29T02:19:21.897Z,55.40
2019-03-29T02:19:53.073Z,55.40
2019-03-29T02:20:24.297Z,55.40
2019-03-29T02:20:55.502Z,55.30
2019-03-29T02:21:26.741Z,55.30
2019-03-29T02:21:58.205Z,55.30
2019-03-29T02:22:29.748Z,56.00
2019-03-29T02:23:01.133Z,55.30
2019-03-29T02:23:32.646Z,55.30
2019-03-29T02:24:03.817Z,55.30
2019-03-29T02:24:35.000Z,55.30
2019-03-29T02:25:06.189Z,55.40
2019-03-29T02:25:37.362Z,55.30
2019-03-29T02:26:09.166Z,55.60
2019-03-29T02:26:40.388Z,55.30
2019-03-29T02:27:11.566Z,55.30
2019-03-29T02:27:42.798Z,55.30
2019-03-29T02:28:13.978Z,55.30
2019-03-29T02:28:45.236Z,55.30
2019-03-29T02:29:16.791Z,55.30
2019-03-29T02:29:47.959Z,55.40
2019-03-29T02:30:19.147Z,55.30
2019-03-29T02:30:50.336Z,55.30
2019-03-29T02:31:25.614Z,55.40
2019-03-29T02:31:54.435Z,55.30
2019-03-29T02:32:26.868Z,55.40
2019-03-29T02:32:58.054Z,55.40
2019-03-29T02:33:29.231Z,55.30
2019-03-29T02:34:00.404Z,55.40
2019-03-29T02:34:31.587Z,55.30
2019-03-29T02:35:02.764Z,55.00
2019-03-29T02:35:33.965Z,55.40
2019-03-29T02:36:05.739Z,55.30
2019-03-29T02:36:37.989Z,55.30
2019-03-29T02:37:09.221Z,55.30
2019-03-29T02:37:40.473Z,55.30
2019-03-29T02:38:11.721Z,55.30
2019-03-29T02:38:55.174Z,55.40
2019-03-29T02:39:15.800Z,55.40
2019-03-29T02:39:46.986Z,55.30
2019-03-29T02:40:18.165Z,55.00
2019-03-29T02:40:50.885Z,55.30
2019-03-29T02:41:22.299Z,55.40
2019-03-29T02:41:53.501Z,55.30
2019-03-29T02:42:24.677Z,55.30
2019-03-29T02:42:55.866Z,55.30
2019-03-29T02:43:27.031Z,55.30
2019-03-29T02:43:58.207Z,55.30
2019-03-29T02:44:29.395Z,55.20
2019-03-29T02:45:00.667Z,55.20
2019-03-29T02:45:31.947Z,55.20
2019-03-29T02:46:03.408Z,55.20
2019-03-29T02:46:34.644Z,55.20
2019-03-29T02:47:05.821Z,55.20
2019-03-29T02:47:37.026Z,55.10
2019-03-29T02:48:08.534Z,55.10
2019-03-29T02:48:39.706Z,55.10
2019-03-29T02:49:12.696Z,55.10
2019-03-29T02:49:44.175Z,55.10
2019-03-29T02:50:15.415Z,55.10
2019-03-29T02:50:46.591Z,55.10
2019-03-29T02:51:17.789Z,55.10
2019-03-29T02:51:49.300Z,55.10
2019-03-29T02:52:20.476Z,55.20
2019-03-29T02:52:51.655Z,55.10
2019-03-29T02:53:22.836Z,55.10
2019-03-29T02:53:54.022Z,55.10
2019-03-29T02:54:25.192Z,55.10
2019-03-29T02:54:56.387Z,55.20
2019-03-29T02:55:27.624Z,55.10
2019-03-29T02:55:59.163Z,55.10
2019-03-29T02:56:30.452Z,55.10
2019-03-29T02:57:01.634Z,55.10
2019-03-29T02:57:32.814Z,55.20
2019-03-29T02:58:04.088Z,55.10
2019-03-29T02:58:35.287Z,55.10
2019-03-29T02:59:06.588Z,55.10
2019-03-29T02:59:37.792Z,55.20
2019-03-29T03:00:08.952Z,55.10
2019-03-29T03:00:40.129Z,55.20
2019-03-29T03:01:11.302Z,55.10
2019-03-29T03:01:42.510Z,55.20
2019-03-29T03:02:13.703Z,55.20
2019-03-29T03:02:44.874Z,55.20
2019-03-29T03:03:18.766Z,55.20
2019-03-29T03:03:49.968Z,55.20
2019-03-29T03:04:21.147Z,55.10
2019-03-29T03:04:52.322Z,55.10
2019-03-29T03:05:23.524Z,55.10
2019-03-29T03:05:54.703Z,55.20
2019-03-29T03:06:25.867Z,55.10
2019-03-29T03:06:57.045Z,55.20
2019-03-29T03:07:28.231Z,55.20
2019-03-29T03:07:59.479Z,55.20
2019-03-29T03:08:32.956Z,55.20
2019-03-29T03:09:13.059Z,55.10
2019-03-29T03:09:36.529Z,55.10
2019-03-29T03:10:07.713Z,55.10
2019-03-29T03:10:38.961Z,55.00
2019-03-29T03:11:10.128Z,55.00
2019-03-29T03:11:41.303Z,54.50
2019-03-29T03:12:12.514Z,55.60
2019-03-29T03:12:43.759Z,55.00
2019-03-29T03:13:15.253Z,55.10
2019-03-29T03:13:46.423Z,55.00
2019-03-29T03:14:17.600Z,55.00
2019-03-29T03:14:48.799Z,55.00
2019-03-29T03:15:19.983Z,55.10
2019-03-29T03:15:51.208Z,55.00
2019-03-29T03:16:22.429Z,55.00
2019-03-29T03:16:53.613Z,55.00
2019-03-29T03:17:24.789Z,55.10
2019-03-29T03:17:55.987Z,55.00
2019-03-29T03:18:27.237Z,55.00
2019-03-29T03:18:58.415Z,55.00
2019-03-29T03:19:29.931Z,55.00
2019-03-29T03:20:01.210Z,55.00
2019-03-29T03:20:32.378Z,55.00
2019-03-29T03:21:03.554Z,55.00
2019-03-29T03:21:35.206Z,55.00
2019-03-29T03:22:06.523Z,55.00
2019-03-29T03:22:38.058Z,55.00
2019-03-29T03:23:09.239Z,54.90
2019-03-29T03:23:40.413Z,55.00
2019-03-29T03:24:11.607Z,55.00
2019-03-29T03:24:43.106Z,55.00
2019-03-29T03:25:14.416Z,55.00
2019-03-29T03:25:45.652Z,55.00
2019-03-29T03:26:16.829Z,55.00
2019-03-29T03:26:48.254Z,55.00
2019-03-29T03:27:19.434Z,55.00
2019-03-29T03:27:50.673Z,55.00
2019-03-29T03:28:21.861Z,55.00
2019-03-29T03:28:53.027Z,55.00
2019-03-29T03:29:24.254Z,55.00
2019-03-29T03:29:55.430Z,55.00
2019-03-29T03:30:26.714Z,55.10
2019-03-29T03:30:57.900Z,54.90
2019-03-29T03:31:29.076Z,55.30
2019-03-29T03:32:00.241Z,55.00
2019-03-29T03:32:31.466Z,55.00
2019-03-29T03:33:02.712Z,55.00
2019-03-29T03:33:33.907Z,55.00
2019-03-29T03:34:05.084Z,54.90
2019-03-29T03:34:36.259Z,55.00
2019-03-29T03:35:07.433Z,55.00
2019-03-29T03:35:38.605Z,55.00
2019-03-29T03:36:09.780Z,55.00
2019-03-29T03:36:41.323Z,55.00
2019-03-29T03:37:12.544Z,55.00
2019-03-29T03:37:43.718Z,55.00
2019-03-29T03:38:14.898Z,55.00
2019-03-29T03:38:46.077Z,54.90
2019-03-29T03:39:30.835Z,54.90
2019-03-29T03:39:50.161Z,54.90
2019-03-29T03:40:21.345Z,54.80
2019-03-29T03:40:52.550Z,54.80
2019-03-29T03:41:23.738Z,54.80
2019-03-29T03:41:54.910Z,54.80
2019-03-29T03:42:26.076Z,55.50
2019-03-29T03:42:57.265Z,54.80
2019-03-29T03:43:28.449Z,54.80
2019-03-29T03:43:59.626Z,54.80
2019-03-29T03:44:31.142Z,54.90
2019-03-29T03:45:02.329Z,54.80
2019-03-29T03:45:33.527Z,55.50
2019-03-29T03:46:04.702Z,54.80
2019-03-29T03:46:35.876Z,54.90
2019-03-29T03:47:07.061Z,55.40
2019-03-29T03:47:38.237Z,54.90
2019-03-29T03:48:09.430Z,54.90
2019-03-29T03:48:40.669Z,54.80
2019-03-29T03:49:11.839Z,54.80
2019-03-29T03:49:43.027Z,54.90
2019-03-29T03:50:14.603Z,54.80
2019-03-29T03:50:45.796Z,55.00
2019-03-29T03:51:16.983Z,54.80
2019-03-29T03:51:48.162Z,55.50
2019-03-29T03:52:19.340Z,54.80
2019-03-29T03:52:50.519Z,54.90
2019-03-29T03:53:21.691Z,54.90
2019-03-29T03:53:53.230Z,54.90
2019-03-29T03:54:24.473Z,54.80
2019-03-29T03:54:55.719Z,54.90
2019-03-29T03:55:27.221Z,54.90
2019-03-29T03:55:58.609Z,54.90
2019-03-29T03:56:29.875Z,54.90
2019-03-29T03:57:01.049Z,54.90
2019-03-29T03:57:32.564Z,54.90
2019-03-29T03:58:03.752Z,54.90
2019-03-29T03:58:34.987Z,54.80
2019-03-29T03:59:06.160Z,54.80
2019-03-29T03:59:37.344Z,54.80
2019-03-29T04:00:08.553Z,54.80
2019-03-29T04:00:40.314Z,54.80
2019-03-29T04:01:11.700Z,54.80
2019-03-29T04:01:43.025Z,54.80
2019-03-29T04:02:14.238Z,54.80
2019-03-29T04:02:45.410Z,54.70
2019-03-29T04:03:17.179Z,54.80
2019-03-29T04:03:48.436Z,54.70
2019-03-29T04:04:19.602Z,54.70
2019-03-29T04:04:50.792Z,54.70
2019-03-29T04:05:21.994Z,54.60
2019-03-29T04:05:53.180Z,54.60
2019-03-29T04:06:24.361Z,54.60
2019-03-29T04:06:55.538Z,54.70
2019-03-29T04:07:26.723Z,54.60
2019-03-29T04:07:57.894Z,54.60
2019-03-29T04:08:29.058Z,54.60
2019-03-29T04:09:00.254Z,54.20
2019-03-29T04:09:48.088Z,54.60
2019-03-29T04:10:04.371Z,54.60
2019-03-29T04:10:35.556Z,54.60
2019-03-29T04:11:07.083Z,54.70
2019-03-29T04:11:38.257Z,54.60
2019-03-29T04:12:09.735Z,54.60
2019-03-29T04:12:41.019Z,54.60
2019-03-29T04:13:12.275Z,54.60
2019-03-29T04:13:43.460Z,54.60
2019-03-29T04:14:14.635Z,54.70
2019-03-29T04:14:45.864Z,54.60
2019-03-29T04:15:17.040Z,54.70
2019-03-29T04:15:48.220Z,55.30
2019-03-29T04:16:19.403Z,54.60
2019-03-29T04:16:50.585Z,54.60
2019-03-29T04:17:22.053Z,54.70
2019-03-29T04:17:53.219Z,54.60
2019-03-29T04:18:24.411Z,54.70
2019-03-29T04:18:55.645Z,54.60
2019-03-29T04:19:27.241Z,54.60
2019-03-29T04:19:58.417Z,54.70
2019-03-29T04:20:29.604Z,54.60
2019-03-29T04:21:00.770Z,54.60
2019-03-29T04:21:31.987Z,54.60
2019-03-29T04:22:03.158Z,54.70
2019-03-29T04:22:34.390Z,54.70
2019-03-29T04:23:05.577Z,54.60
2019-03-29T04:23:36.804Z,54.60
2019-03-29T04:24:07.985Z,54.70
2019-03-29T04:24:39.223Z,54.70
2019-03-29T04:25:10.456Z,54.60
2019-03-29T04:25:41.646Z,54.70
2019-03-29T04:26:12.891Z,54.60
2019-03-29T04:26:44.581Z,54.60
2019-03-29T04:27:15.894Z,54.60
2019-03-29T04:27:47.071Z,54.60
2019-03-29T04:28:18.249Z,54.50
2019-03-29T04:29:03.289Z,55.20
2019-03-29T04:29:22.419Z,54.50
2019-03-29T04:29:53.594Z,54.60
2019-03-29T04:30:24.811Z,54.60
2019-03-29T04:30:56.028Z,54.50
2019-03-29T04:31:27.283Z,54.40
2019-03-29T04:31:58.460Z,54.50
2019-03-29T04:32:29.632Z,54.50
2019-03-29T04:33:00.849Z,54.40
2019-03-29T04:33:32.031Z,54.40
2019-03-29T04:34:03.541Z,54.50
2019-03-29T04:34:34.791Z,54.50
2019-03-29T04:35:05.987Z,54.40
2019-03-29T04:35:37.443Z,54.50
2019-03-29T04:36:09.838Z,54.50
2019-03-29T04:36:40.996Z,54.50
2019-03-29T04:37:12.179Z,54.50
2019-03-29T04:37:43.364Z,54.50
2019-03-29T04:38:14.608Z,54.50
2019-03-29T04:38:45.786Z,54.50
2019-03-29T04:39:17.006Z,54.60
2019-03-29T04:40:05.777Z,54.50
2019-03-29T04:40:21.165Z,54.50
2019-03-29T04:40:52.400Z,54.50
2019-03-29T04:41:23.584Z,54.50
2019-03-29T04:41:54.781Z,54.50
2019-03-29T04:42:26.004Z,54.50
2019-03-29T04:42:57.233Z,54.50
2019-03-29T04:43:28.471Z,54.60
2019-03-29T04:43:59.663Z,54.50
2019-03-29T04:44:30.846Z,54.60
2019-03-29T04:45:02.023Z,54.50
2019-03-29T04:45:33.513Z,54.50
2019-03-29T04:46:04.685Z,54.50
2019-03-29T04:46:35.869Z,54.50
2019-03-29T04:47:07.419Z,54.50
2019-03-29T04:47:38.594Z,54.50
2019-03-29T04:48:09.840Z,54.50
2019-03-29T04:48:41.079Z,54.50
2019-03-29T04:49:12.350Z,54.50
2019-03-29T04:49:43.536Z,54.50
2019-03-29T04:50:14.710Z,54.50
2019-03-29T04:50:45.886Z,54.50
2019-03-29T04:51:17.067Z,54.50
2019-03-29T04:51:48.242Z,54.50
2019-03-29T04:52:19.412Z,54.50
2019-03-29T04:52:50.601Z,54.50
2019-03-29T04:53:21.840Z,54.60
2019-03-29T04:53:53.349Z,54.50
2019-03-29T04:54:24.968Z,54.50
2019-03-29T04:54:56.143Z,54.50
2019-03-29T04:55:27.350Z,54.50
2019-03-29T04:55:58.565Z,54.50
2019-03-29T04:56:29.781Z,54.50
2019-03-29T04:57:00.954Z,54.40
2019-03-29T04:57:32.135Z,54.50
2019-03-29T04:58:03.308Z,54.40
2019-03-29T04:58:34.488Z,54.40
2019-03-29T04:59:05.660Z,54.30
2019-03-29T04:59:36.862Z,54.30
2019-03-29T05:00:08.115Z,54.30
2019-03-29T05:00:39.288Z,54.90
2019-03-29T05:01:10.469Z,54.30
2019-03-29T05:01:41.701Z,54.30
2019-03-29T05:02:13.177Z,54.30
2019-03-29T05:02:44.356Z,54.30
2019-03-29T05:03:15.817Z,54.30
2019-03-29T05:03:46.993Z,54.80
2019-03-29T05:04:18.201Z,54.30
2019-03-29T05:04:49.375Z,54.30
2019-03-29T05:05:20.564Z,54.30
2019-03-29T05:05:51.728Z,54.30
2019-03-29T05:06:22.914Z,54.30
2019-03-29T05:06:54.088Z,54.30
2019-03-29T05:07:25.270Z,54.40
2019-03-29T05:07:56.745Z,54.40
2019-03-29T05:08:27.934Z,54.30
2019-03-29T05:08:59.130Z,54.40
2019-03-29T05:09:30.316Z,54.40
2019-03-29T05:10:01.507Z,54.30
2019-03-29T05:10:32.678Z,54.40
2019-03-29T05:11:03.882Z,54.50
2019-03-29T05:11:35.062Z,54.40
2019-03-29T05:12:06.246Z,54.50
2019-03-29T05:12:37.410Z,54.40
2019-03-29T05:13:08.592Z,54.50
2019-03-29T05:13:40.051Z,54.40
2019-03-29T05:14:11.239Z,54.50
2019-03-29T05:14:42.439Z,54.40
2019-03-29T05:15:13.635Z,54.40
2019-03-29T05:15:44.823Z,54.40
2019-03-29T05:16:16.023Z,54.40
2019-03-29T05:16:47.202Z,54.40
2019-03-29T05:17:18.375Z,54.40
2019-03-29T05:17:49.935Z,54.40
2019-03-29T05:18:21.111Z,54.40
2019-03-29T05:18:52.597Z,54.40
2019-03-29T05:19:24.122Z,54.40
2019-03-29T05:19:55.299Z,54.40
2019-03-29T05:20:26.472Z,54.40
2019-03-29T05:20:57.679Z,54.40
2019-03-29T05:21:29.152Z,54.40
2019-03-29T05:22:00.698Z,54.30
2019-03-29T05:22:31.877Z,54.30
2019-03-29T05:23:03.065Z,54.30
2019-03-29T05:23:34.265Z,54.30
2019-03-29T05:24:05.449Z,54.30
2019-03-29T05:24:36.625Z,54.30
2019-03-29T05:25:07.809Z,54.30
2019-03-29T05:25:38.985Z,54.50
2019-03-29T05:26:10.188Z,54.20
2019-03-29T05:26:41.369Z,54.20
2019-03-29T05:27:12.582Z,54.20
2019-03-29T05:27:44.046Z,54.20
2019-03-29T05:28:15.245Z,54.20
2019-03-29T05:28:46.418Z,54.20
2019-03-29T05:29:17.610Z,54.10
2019-03-29T05:29:49.083Z,54.20
2019-03-29T05:30:20.302Z,54.20
2019-03-29T05:30:51.547Z,54.20
2019-03-29T05:31:22.778Z,54.20
2019-03-29T05:31:53.983Z,54.20
2019-03-29T05:32:25.182Z,54.20
2019-03-29T05:32:56.352Z,54.30
2019-03-29T05:33:27.542Z,54.20
2019-03-29T05:33:59.042Z,54.30
2019-03-29T05:34:30.229Z,54.20
2019-03-29T05:35:01.663Z,54.20
2019-03-29T05:35:32.839Z,54.20
2019-03-29T05:36:04.020Z,54.20
2019-03-29T05:36:35.455Z,54.20
2019-03-29T05:37:06.643Z,54.20
2019-03-29T05:37:37.849Z,54.20
2019-03-29T05:38:09.023Z,54.20
2019-03-29T05:38:40.564Z,54.30
2019-03-29T05:39:11.740Z,54.20
2019-03-29T05:39:42.919Z,54.20
2019-03-29T05:40:14.440Z,54.00
2019-03-29T05:40:45.688Z,54.20
2019-03-29T05:41:16.920Z,54.20
2019-03-29T05:41:48.135Z,54.20
2019-03-29T05:42:19.316Z,54.20
2019-03-29T05:42:50.542Z,54.10
2019-03-29T05:43:21.708Z,54.10
2019-03-29T05:43:52.888Z,54.10
2019-03-29T05:44:24.452Z,54.10
2019-03-29T05:44:55.652Z,54.00
2019-03-29T05:45:26.840Z,54.40
2019-03-29T05:45:58.061Z,54.10
2019-03-29T05:46:29.246Z,54.10
2019-03-29T05:47:00.497Z,54.00
2019-03-29T05:47:32.135Z,54.10
2019-03-29T05:48:03.752Z,54.00
2019-03-29T05:48:35.314Z,54.10
2019-03-29T05:49:06.599Z,54.00
2019-03-29T05:49:38.076Z,54.70
2019-03-29T05:50:09.631Z,54.00
2019-03-29T05:50:40.809Z,54.10
2019-03-29T05:51:12.394Z,54.10
2019-03-29T05:51:43.579Z,54.10
2019-03-29T05:52:15.098Z,54.10
2019-03-29T05:52:46.327Z,54.10
2019-03-29T05:53:17.811Z,54.10
2019-03-29T05:53:49.347Z,54.10
2019-03-29T05:54:20.619Z,54.10
2019-03-29T05:54:51.803Z,54.10
2019-03-29T05:55:32.578Z,54.10
2019-03-29T05:55:55.874Z,54.10
2019-03-29T05:56:27.509Z,54.10
2019-03-29T05:56:58.989Z,54.10
2019-03-29T05:57:30.534Z,54.10
2019-03-29T05:58:02.077Z,54.10
2019-03-29T05:58:33.250Z,54.00
2019-03-29T05:59:04.476Z,54.10
2019-03-29T05:59:35.682Z,54.10
2019-03-29T06:00:06.966Z,54.10
2019-03-29T06:00:38.167Z,54.10
2019-03-29T06:01:09.352Z,54.20
2019-03-29T06:01:40.805Z,54.10
2019-03-29T06:02:12.052Z,54.20
2019-03-29T06:02:43.568Z,54.10
2019-03-29T06:03:14.744Z,54.10
2019-03-29T06:03:45.944Z,54.10
2019-03-29T06:04:17.124Z,54.10
2019-03-29T06:04:48.313Z,54.10
2019-03-29T06:05:19.489Z,54.10
2019-03-29T06:05:50.667Z,54.10
2019-03-29T06:06:21.917Z,54.10
2019-03-29T06:06:53.147Z,54.10
2019-03-29T06:07:24.467Z,54.10
2019-03-29T06:07:55.637Z,54.20
2019-03-29T06:08:26.844Z,54.10
2019-03-29T06:08:58.058Z,54.10
2019-03-29T06:09:29.277Z,54.10
2019-03-29T06:10:00.488Z,54.20
2019-03-29T06:10:32.062Z,54.20
2019-03-29T06:11:03.240Z,54.20
2019-03-29T06:11:34.422Z,54.20
2019-03-29T06:12:05.710Z,54.20
2019-03-29T06:12:36.938Z,54.20
2019-03-29T06:13:08.104Z,54.20
2019-03-29T06:13:39.301Z,54.20
2019-03-29T06:14:10.797Z,54.20
2019-03-29T06:14:41.995Z,54.20
2019-03-29T06:15:13.451Z,54.20
2019-03-29T06:15:44.675Z,54.20
2019-03-29T06:16:16.123Z,54.20
2019-03-29T06:16:47.352Z,54.20
2019-03-29T06:17:18.921Z,54.10
2019-03-29T06:17:50.224Z,54.10
2019-03-29T06:18:21.399Z,54.10
2019-03-29T06:18:52.900Z,54.10
2019-03-29T06:19:24.080Z,54.10
2019-03-29T06:19:55.252Z,54.00
2019-03-29T06:20:26.459Z,54.00
2019-03-29T06:20:57.938Z,54.10
2019-03-29T06:21:29.484Z,54.00
2019-03-29T06:22:00.649Z,54.00
2019-03-29T06:22:31.828Z,54.00
2019-03-29T06:23:03.001Z,54.00
2019-03-29T06:23:34.213Z,54.00
2019-03-29T06:24:05.419Z,54.00
2019-03-29T06:24:36.964Z,54.10
2019-03-29T06:25:08.180Z,54.00
2019-03-29T06:25:39.384Z,54.10
2019-03-29T06:26:10.578Z,54.30
2019-03-29T06:26:41.836Z,54.00
2019-03-29T06:27:13.041Z,54.80
2019-03-29T06:27:44.224Z,54.10
2019-03-29T06:28:15.698Z,54.10
2019-03-29T06:28:46.875Z,54.10
2019-03-29T06:29:18.057Z,54.10
2019-03-29T06:29:49.248Z,54.10
2019-03-29T06:30:20.754Z,54.10
2019-03-29T06:30:51.934Z,54.10
2019-03-29T06:31:23.106Z,54.10
2019-03-29T06:31:54.306Z,54.10
2019-03-29T06:32:25.562Z,54.10
2019-03-29T06:32:56.742Z,54.10
2019-03-29T06:33:28.173Z,54.10
2019-03-29T06:33:59.350Z,54.10
2019-03-29T06:34:30.522Z,54.10
2019-03-29T06:35:01.714Z,54.20
2019-03-29T06:35:32.893Z,54.10
2019-03-29T06:36:04.109Z,54.20
2019-03-29T06:36:35.346Z,54.10
2019-03-29T06:37:06.611Z,54.20
2019-03-29T06:37:37.767Z,54.10
2019-03-29T06:38:09.215Z,54.10
2019-03-29T06:38:40.753Z,54.10
2019-03-29T06:39:11.925Z,54.10
2019-03-29T06:39:43.216Z,54.10
2019-03-29T06:40:14.403Z,54.10
2019-03-29T06:40:45.583Z,54.10
2019-03-29T06:41:16.783Z,54.10
2019-03-29T06:41:48.012Z,54.10
2019-03-29T06:42:19.212Z,54.10
2019-03-29T06:42:50.745Z,54.00
2019-03-29T06:43:21.920Z,54.10